Time;durP1;ratioP1;P1;durP2;ratioP2;P2;SDS_P1;SDS_P2;PMS_P1;PMS_P2;Temp;Humidity;BMP_temperature;BMP_pressure;BME280_temperature;BME280_humidity;BME280_pressure;Samples;Min_cycle;Max_cycle;Signal;HPM_P1;HPM_P2
2022/08/23 00:02:12;;;;;;;2.40;1.30;;;18.20;82.80;;;;;;4897236;29;20036;-70
2022/08/23 00:04:42;;;;;;;5.63;1.48;;;18.30;82.90;;;;;;4895963;29;20029;-72
2022/08/23 00:07:13;;;;;;;3.78;1.38;;;18.50;82.90;;;;;;4897161;29;20024;-70
2022/08/23 00:09:41;;;;;;;2.92;1.10;;;18.60;82.30;;;;;;4897036;29;20029;-68
2022/08/23 00:12:10;;;;;;;4.85;1.42;;;18.70;81.50;;;;;;4894872;29;20385;-65
2022/08/23 00:14:42;;;;;;;2.53;1.20;;;18.80;80.70;;;;;;4895899;29;20477;-67
2022/08/23 00:17:10;;;;;;;5.15;1.23;;;19.00;79.10;;;;;;4897071;29;20028;-64
2022/08/23 00:19:39;;;;;;;5.22;1.50;;;19.10;78.80;;;;;;4897216;29;20025;-71
2022/08/23 00:22:07;;;;;;;2.35;0.98;;;19.30;78.90;;;;;;4897137;29;20540;-66
2022/08/23 00:24:38;;;;;;;4.70;1.20;;;19.30;78.30;;;;;;4896734;29;20457;-68
2022/08/23 00:27:15;;;;;;;3.22;0.90;;;19.40;77.50;;;;;;4896306;29;20028;-67
2022/08/23 00:29:55;;;;;;;3.03;0.90;;;19.40;75.40;;;;;;4896266;29;20492;-67
2022/08/23 00:32:29;;;;;;;1.92;0.70;;;19.60;75.70;;;;;;4882772;29;20465;-71
2022/08/23 00:34:57;;;;;;;3.83;0.85;;;19.70;76.00;;;;;;4896183;29;20024;-72
2022/08/23 00:37:25;;;;;;;3.67;0.80;;;19.80;75.20;;;;;;4896729;29;20046;-69
2022/08/23 00:39:53;;;;;;;4.95;0.98;;;19.80;75.10;;;;;;4896614;29;20025;-74
2022/08/23 00:47:54;;;;;;;2.25;0.70;;;20.00;75.00;;;;;;4895649;29;20040;-69
2022/08/23 00:50:40;;;;;;;2.58;1.00;;;20.00;74.50;;;;;;4897316;29;20025;-73
2022/08/23 00:53:31;;;;;;;5.70;0.95;;;20.00;74.60;;;;;;4897463;29;20037;-71
2022/08/23 00:56:02;;;;;;;1.67;0.70;;;20.10;74.40;;;;;;4894988;29;20035;-69
2022/08/23 00:58:30;;;;;;;1.65;0.90;;;20.20;74.60;;;;;;4895328;29;20056;-72
2022/08/23 01:01:00;;;;;;;3.17;1.00;;;20.30;74.30;;;;;;4895461;29;20426;-68
2022/08/23 01:03:30;;;;;;;3.00;1.13;;;20.40;73.80;;;;;;4895026;29;20028;-74
2022/08/23 01:06:06;;;;;;;3.97;0.95;;;20.50;72.70;;;;;;4895125;29;20023;-70
2022/08/23 01:08:36;;;;;;;2.25;0.93;;;20.50;72.80;;;;;;4894205;29;20477;-68
2022/08/23 01:11:50;;;;;;;2.00;1.02;;;20.60;73.70;;;;;;4895237;29;20035;-67
2022/08/23 01:14:29;;;;;;;2.83;1.13;;;20.70;73.20;;;;;;4892776;29;20040;-67
2022/08/23 01:17:06;;;;;;;2.17;1.23;;;20.70;72.40;;;;;;4895568;29;20044;-67
2022/08/23 01:19:42;;;;;;;2.22;0.80;;;20.90;73.20;;;;;;4895571;29;20039;-68
2022/08/23 01:22:36;;;;;;;1.48;0.77;;;21.00;73.90;;;;;;4896022;29;20036;-70
2022/08/23 01:25:10;;;;;;;1.60;0.70;;;21.10;72.20;;;;;;4894669;29;20041;-68
2022/08/23 01:27:38;;;;;;;3.40;0.73;;;21.00;72.00;;;;;;4896009;29;20025;-66
2022/08/23 01:30:08;;;;;;;4.35;1.48;;;21.10;72.50;;;;;;4895878;29;20029;-66
2022/08/23 01:32:42;;;;;;;2.00;0.90;;;21.10;72.80;;;;;;4895908;29;20029;-66
2022/08/23 01:35:10;;;;;;;3.08;0.90;;;21.20;72.30;;;;;;4895942;29;20033;-69
2022/08/23 01:37:38;;;;;;;5.15;0.80;;;21.30;72.10;;;;;;4895741;29;20044;-70
2022/08/23 01:40:06;;;;;;;4.63;1.20;;;21.40;71.90;;;;;;4896023;29;20383;-69
2022/08/23 01:42:33;;;;;;;3.63;1.10;;;21.40;71.70;;;;;;4895351;29;20048;-74
2022/08/23 01:45:00;;;;;;;2.60;0.73;;;21.50;72.20;;;;;;4893752;29;20024;-69
2022/08/23 01:47:28;;;;;;;3.35;0.90;;;21.60;71.20;;;;;;4895072;29;20180;-73
2022/08/23 01:49:55;;;;;;;1.70;0.70;;;21.80;71.00;;;;;;4895405;29;20021;-70
2022/08/23 01:52:22;;;;;;;2.17;0.80;;;21.90;69.70;;;;;;4896130;29;20160;-72
2022/08/23 01:54:50;;;;;;;5.65;1.80;;;21.90;69.50;;;;;;4895675;29;20048;-70
2022/08/23 01:57:17;;;;;;;2.55;0.90;;;21.90;69.80;;;;;;4895851;29;20039;-71
2022/08/23 01:59:45;;;;;;;2.58;0.73;;;21.90;70.70;;;;;;4895938;29;20041;-70
2022/08/23 02:02:13;;;;;;;1.35;0.73;;;21.80;69.90;;;;;;4894701;29;20538;-69
2022/08/23 02:04:41;;;;;;;4.70;1.05;;;21.80;70.50;;;;;;4895300;29;20040;-67
2022/08/23 02:07:08;;;;;;;4.75;0.90;;;21.80;70.70;;;;;;4894781;29;20060;-69
2022/08/23 02:09:36;;;;;;;2.10;0.70;;;21.90;70.50;;;;;;4894527;29;20025;-71
2022/08/23 02:12:04;;;;;;;3.05;0.73;;;22.00;69.80;;;;;;4893669;29;20481;-67
2022/08/23 02:14:32;;;;;;;1.08;0.60;;;21.90;69.00;;;;;;4895503;29;20367;-68
2022/08/23 02:16:59;;;;;;;3.50;0.70;;;21.90;69.20;;;;;;4895868;29;20041;-69
2022/08/23 02:19:26;;;;;;;3.08;0.73;;;21.90;69.30;;;;;;4895068;29;20493;-69
2022/08/23 02:21:54;;;;;;;2.78;0.73;;;21.80;69.70;;;;;;4894430;29;20549;-67
2022/08/23 02:24:24;;;;;;;2.42;0.80;;;21.60;70.10;;;;;;4894029;29;20394;-72
2022/08/23 02:26:57;;;;;;;3.97;0.90;;;21.40;70.80;;;;;;4893093;29;20149;-69
2022/08/23 02:29:28;;;;;;;2.22;1.00;;;21.20;74.80;;;;;;4894042;29;20060;-66
2022/08/23 02:31:57;;;;;;;7.70;1.60;;;21.00;78.80;;;;;;4894512;29;20553;-67
2022/08/23 02:34:24;;;;;;;4.38;1.63;;;20.60;83.00;;;;;;4893632;29;20299;-68
2022/08/23 02:36:51;;;;;;;6.65;1.42;;;20.30;86.30;;;;;;4896297;29;20036;-67
2022/08/23 02:39:19;;;;;;;9.25;1.98;;;19.70;88.00;;;;;;4899043;29;20039;-67
2022/08/23 02:41:46;;;;;;;6.25;1.50;;;18.90;91.20;;;;;;4899255;29;20029;-68
2022/08/23 02:44:14;;;;;;;4.00;1.40;;;18.30;92.50;;;;;;4899076;29;20477;-67
2022/08/23 02:46:42;;;;;;;4.15;1.20;;;17.90;93.40;;;;;;4899425;29;20710;-67
2022/08/23 02:49:10;;;;;;;4.38;1.00;;;17.70;93.70;;;;;;4894437;29;20082;-68
2022/08/23 02:51:38;;;;;;;8.45;2.22;;;17.50;94.60;;;;;;4880710;29;20032;-69
2022/08/23 02:54:06;;;;;;;5.78;1.63;;;17.60;96.10;;;;;;4892996;29;20438;-70
2022/08/23 02:56:34;;;;;;;3.97;1.20;;;17.60;96.80;;;;;;4898048;29;20088;-71
2022/08/23 02:59:03;;;;;;;6.78;2.00;;;17.50;96.80;;;;;;4897968;29;20049;-68
2022/08/23 03:01:35;;;;;;;13.02;2.67;;;17.60;97.60;;;;;;4898472;29;20029;-66
2022/08/23 03:04:03;;;;;;;14.17;3.43;;;17.60;97.80;;;;;;4898563;29;20044;-66
2022/08/23 03:06:31;;;;;;;11.65;2.13;;;17.10;97.50;;;;;;4898938;29;20259;-71
2022/08/23 03:08:58;;;;;;;20.23;3.78;;;16.60;97.70;;;;;;4898421;29;20061;-67
2022/08/23 03:11:27;;;;;;;12.85;2.13;;;16.20;98.30;;;;;;4898679;29;20035;-70
2022/08/23 03:13:55;;;;;;;14.73;2.42;;;15.90;99.30;;;;;;4898306;29;20048;-66
2022/08/23 03:16:23;;;;;;;11.68;2.92;;;15.80;99.90;;;;;;4898372;29;20489;-69
2022/08/23 03:18:51;;;;;;;13.07;2.40;;;15.80;99.90;;;;;;4898158;29;20059;-67
2022/08/23 03:21:20;;;;;;;16.38;3.47;;;16.10;99.90;;;;;;4898396;29;20668;-67
2022/08/23 03:23:48;;;;;;;15.02;2.47;;;16.70;99.90;;;;;;4897637;29;20040;-70
2022/08/23 03:26:16;;;;;;;16.23;2.83;;;17.30;99.70;;;;;;4898584;29;20437;-69
2022/08/23 03:28:45;;;;;;;17.40;3.08;;;17.70;99.20;;;;;;4897597;29;20414;-69
2022/08/23 03:31:14;;;;;;;14.63;2.97;;;17.70;97.80;;;;;;4897850;29;20031;-69
2022/08/23 03:33:41;;;;;;;9.02;2.10;;;17.40;97.80;;;;;;4897124;29;20080;-67
2022/08/23 03:36:11;;;;;;;20.92;4.13;;;17.10;98.10;;;;;;4897608;29;20059;-66
2022/08/23 03:38:40;;;;;;;11.57;2.08;;;16.70;98.70;;;;;;4897554;29;20033;-72
2022/08/23 03:41:08;;;;;;;8.15;1.13;;;16.30;98.80;;;;;;4897168;29;20029;-69
2022/08/23 03:43:36;;;;;;;7.63;1.27;;;15.90;98.80;;;;;;4898110;29;20029;-70
2022/08/23 03:46:05;;;;;;;9.18;2.58;;;15.50;99.70;;;;;;4895557;29;20028;-68
2022/08/23 03:48:33;;;;;;;13.02;3.13;;;15.20;99.90;;;;;;4896515;29;20025;-69
2022/08/23 03:51:01;;;;;;;12.75;1.50;;;14.90;99.90;;;;;;4897774;29;20497;-68
2022/08/23 03:53:28;;;;;;;12.77;1.70;;;14.70;99.90;;;;;;4898454;29;20032;-68
2022/08/23 03:55:56;;;;;;;5.10;1.60;;;14.50;99.90;;;;;;4897773;29;20067;-65
2022/08/23 03:58:28;;;;;;;9.13;1.52;;;14.20;99.90;;;;;;4896991;29;20450;-65
2022/08/23 04:00:56;;;;;;;8.13;1.67;;;14.00;99.90;;;;;;4897782;29;20426;-65
2022/08/23 04:03:24;;;;;;;8.90;1.13;;;13.80;99.90;;;;;;4897511;29;20036;-67
2022/08/23 04:05:51;;;;;;;6.78;0.90;;;13.50;99.90;;;;;;4895736;29;20390;-67
2022/08/23 04:08:19;;;;;;;9.02;1.40;;;13.30;99.90;;;;;;4894941;29;20387;-68
2022/08/23 04:10:46;;;;;;;5.65;0.80;;;13.30;99.90;;;;;;4895611;29;20040;-67
2022/08/23 04:13:13;;;;;;;6.63;1.00;;;13.10;99.90;;;;;;4897028;29;20024;-67
2022/08/23 04:15:41;;;;;;;8.18;1.75;;;12.90;99.90;;;;;;4896774;29;20033;-69
2022/08/23 04:18:08;;;;;;;9.63;1.75;;;12.90;99.90;;;;;;4897274;29;20569;-67
2022/08/23 04:20:36;;;;;;;12.98;3.15;;;12.80;99.90;;;;;;4897381;29;20036;-66
2022/08/23 04:23:04;;;;;;;15.15;2.42;;;12.80;99.90;;;;;;4897660;29;20029;-68
2022/08/23 04:25:32;;;;;;;9.15;2.25;;;12.80;99.90;;;;;;4896821;29;20028;-67
2022/08/23 04:27:59;;;;;;;9.02;1.10;;;12.70;99.90;;;;;;4896172;29;20252;-67
2022/08/23 04:30:27;;;;;;;8.38;1.40;;;12.50;99.90;;;;;;4897199;29;20636;-66
2022/08/23 04:32:54;;;;;;;6.15;0.93;;;12.40;99.90;;;;;;4897078;29;20047;-65
2022/08/23 04:35:22;;;;;;;10.43;1.48;;;12.30;99.90;;;;;;4893570;29;20029;-66
2022/08/23 04:37:49;;;;;;;6.00;1.95;;;12.30;99.90;;;;;;4896943;29;20043;-67
2022/08/23 04:43:02;;;;;;;9.43;1.10;;;12.30;99.90;;;;;;4896831;29;20096;-70
2022/08/23 04:45:31;;;;;;;6.00;1.52;;;12.20;99.90;;;;;;4890756;29;20041;-69
2022/08/23 04:47:58;;;;;;;7.07;2.05;;;12.10;99.90;;;;;;4890278;29;20375;-70
2022/08/23 04:50:26;;;;;;;6.80;2.35;;;12.00;99.90;;;;;;4895729;29;20063;-71
2022/08/23 04:52:53;;;;;;;6.57;1.92;;;11.90;99.90;;;;;;4896942;29;20031;-68
2022/08/23 04:55:23;;;;;;;2.80;0.90;;;11.80;99.90;;;;;;4896510;29;20029;-67
2022/08/23 04:57:51;;;;;;;7.40;2.05;;;11.60;99.90;;;;;;4896004;29;20052;-68
2022/08/23 05:00:18;;;;;;;4.95;1.40;;;11.60;99.90;;;;;;4895777;29;20486;-70
2022/08/23 05:02:45;;;;;;;3.38;1.33;;;11.50;99.90;;;;;;4894968;29;20112;-68
2022/08/23 05:05:13;;;;;;;4.97;1.13;;;11.50;99.90;;;;;;4895400;29;20016;-68
2022/08/23 05:07:40;;;;;;;6.50;2.08;;;11.30;99.90;;;;;;4896157;29;20036;-68
2022/08/23 05:10:09;;;;;;;4.18;1.05;;;11.20;99.90;;;;;;4896278;29;20096;-67
2022/08/23 05:12:36;;;;;;;2.65;0.93;;;11.10;99.90;;;;;;4895916;29;20075;-66
2022/08/23 05:15:04;;;;;;;4.60;1.02;;;11.10;99.90;;;;;;4895753;29;20077;-67
2022/08/23 05:17:32;;;;;;;6.63;1.52;;;11.00;99.90;;;;;;4894806;29;20032;-68
2022/08/23 05:19:59;;;;;;;4.65;0.88;;;10.90;99.90;;;;;;4895511;29;20039;-68
2022/08/23 05:22:27;;;;;;;6.30;1.20;;;10.80;99.90;;;;;;4895825;29;20111;-67
2022/08/23 05:24:54;;;;;;;4.13;1.15;;;10.80;99.90;;;;;;4895940;29;20037;-67
2022/08/23 05:27:22;;;;;;;4.57;0.80;;;10.70;99.90;;;;;;4895854;29;20025;-66
2022/08/23 05:29:53;;;;;;;4.97;1.20;;;10.70;99.90;;;;;;4893844;29;20437;-70
2022/08/23 05:32:21;;;;;;;4.63;0.90;;;10.70;99.90;;;;;;4895333;29;20080;-68
2022/08/23 05:34:49;;;;;;;4.28;0.70;;;10.60;99.90;;;;;;4895621;29;20044;-68
2022/08/23 05:37:17;;;;;;;3.28;0.85;;;10.60;99.90;;;;;;4896083;29;20032;-66
2022/08/23 05:39:44;;;;;;;6.00;1.17;;;10.70;99.90;;;;;;4895794;29;20108;-71
2022/08/23 05:42:14;;;;;;;2.15;0.77;;;10.70;99.90;;;;;;4896183;29;20033;-68
2022/08/23 05:44:42;;;;;;;3.35;1.08;;;10.70;99.90;;;;;;4895436;29;20080;-65
2022/08/23 05:47:12;;;;;;;1.83;0.80;;;10.80;99.90;;;;;;4895769;29;20429;-68
2022/08/23 05:49:43;;;;;;;2.97;0.90;;;10.70;99.90;;;;;;4909677;29;20036;-66
2022/08/23 05:52:12;;;;;;;5.65;0.95;;;10.70;99.90;;;;;;4896271;29;20033;-68
2022/08/23 05:54:39;;;;;;;1.88;0.80;;;10.60;99.90;;;;;;4894556;29;20039;-66
2022/08/23 05:57:07;;;;;;;2.58;0.85;;;10.70;99.90;;;;;;4895982;29;20081;-66
2022/08/23 05:59:34;;;;;;;6.20;2.15;;;10.60;99.90;;;;;;4894653;29;20048;-66
2022/08/23 06:02:02;;;;;;;4.15;0.93;;;10.50;99.90;;;;;;4895134;29;20518;-66
2022/08/23 06:04:29;;;;;;;3.92;0.82;;;10.60;99.90;;;;;;4895428;29;20477;-66
2022/08/23 06:06:57;;;;;;;6.38;1.15;;;10.50;99.90;;;;;;4896211;29;20039;-66
2022/08/23 06:09:25;;;;;;;3.58;1.30;;;10.50;99.90;;;;;;4895938;29;20023;-65
2022/08/23 06:11:52;;;;;;;4.72;1.10;;;10.50;99.90;;;;;;4896285;29;20048;-68
2022/08/23 06:14:20;;;;;;;2.63;0.70;;;10.40;99.90;;;;;;4898517;29;20052;-66
2022/08/23 06:16:49;;;;;;;3.58;0.80;;;10.40;99.90;;;;;;4899024;29;20120;-66
2022/08/23 06:19:17;;;;;;;1.90;0.77;;;10.30;99.90;;;;;;4897800;29;20131;-65
2022/08/23 06:21:45;;;;;;;4.00;1.00;;;10.40;99.90;;;;;;4898867;29;20017;-67
2022/08/23 06:24:13;;;;;;;4.13;0.95;;;10.40;99.90;;;;;;4899300;29;20382;-66
2022/08/23 06:26:44;;;;;;;4.70;1.10;;;10.40;99.90;;;;;;4898796;29;20414;-66
2022/08/23 06:29:14;;;;;;;2.00;1.13;;;10.30;99.90;;;;;;4897885;29;20115;-67
2022/08/23 06:31:49;;;;;;;5.93;1.60;;;10.30;99.90;;;;;;4897816;29;20108;-68
2022/08/23 06:34:17;;;;;;;4.80;0.80;;;10.30;99.90;;;;;;4898139;29;20567;-66
2022/08/23 06:36:45;;;;;;;4.03;0.90;;;10.30;99.90;;;;;;4898320;29;20025;-67
2022/08/23 06:39:14;;;;;;;1.95;0.80;;;10.20;99.90;;;;;;4898031;29;20032;-68
2022/08/23 06:41:41;;;;;;;6.18;1.45;;;10.30;99.90;;;;;;4893556;29;20055;-66
2022/08/23 06:44:09;;;;;;;1.65;0.90;;;10.20;99.90;;;;;;4898094;29;20039;-66
2022/08/23 06:46:38;;;;;;;2.78;0.70;;;10.20;99.90;;;;;;4898841;29;20111;-71
2022/08/23 06:49:07;;;;;;;2.83;0.73;;;10.20;99.90;;;;;;4898810;29;20033;-68
2022/08/23 06:51:40;;;;;;;3.40;0.88;;;10.30;99.90;;;;;;4890425;29;20033;-63
2022/08/23 06:54:11;;;;;;;3.92;1.40;;;10.20;99.90;;;;;;4898027;29;20024;-68
2022/08/23 06:56:39;;;;;;;3.88;1.05;;;10.20;99.90;;;;;;4899202;29;20397;-70
2022/08/23 06:59:08;;;;;;;1.00;0.60;;;10.20;99.90;;;;;;4897536;29;20402;-67
2022/08/23 07:01:47;;;;;;;3.33;1.35;;;10.20;99.90;;;;;;4898120;29;20027;-66
2022/08/23 07:04:19;;;;;;;3.13;0.95;;;10.10;99.90;;;;;;4897730;29;20490;-70
2022/08/23 07:06:47;;;;;;;2.47;0.93;;;10.00;99.90;;;;;;4898593;29;20029;-68
2022/08/23 07:09:15;;;;;;;3.80;0.90;;;10.00;99.90;;;;;;4897181;29;20032;-68
2022/08/23 07:11:43;;;;;;;4.40;1.10;;;10.10;99.90;;;;;;4892510;29;20061;-65
2022/08/23 07:14:14;;;;;;;1.00;0.68;;;10.00;99.90;;;;;;4896701;29;20108;-67
2022/08/23 07:16:46;;;;;;;2.25;1.70;;;10.00;99.90;;;;;;4897216;29;20385;-67
2022/08/23 07:19:16;;;;;;;3.95;1.33;;;10.10;99.90;;;;;;4894659;29;20096;-70
2022/08/23 07:21:44;;;;;;;3.05;1.30;;;10.00;99.90;;;;;;4896316;29;20089;-69
2022/08/23 07:24:12;;;;;;;5.15;3.75;;;10.00;99.90;;;;;;4896150;29;20028;-66
2022/08/23 07:26:41;;;;;;;2.88;1.10;;;10.00;99.90;;;;;;4897701;29;20031;-68
2022/08/23 07:29:10;;;;;;;2.53;1.33;;;10.00;99.90;;;;;;4896818;29;20029;-66
2022/08/23 07:31:44;;;;;;;3.05;1.00;;;10.10;99.90;;;;;;4897415;29;20127;-69
2022/08/23 07:34:12;;;;;;;2.42;1.13;;;10.10;99.90;;;;;;4895791;29;20489;-66
2022/08/23 07:36:41;;;;;;;4.30;1.17;;;10.00;99.90;;;;;;4897322;29;20504;-68
2022/08/23 07:39:10;;;;;;;1.33;1.00;;;10.10;99.90;;;;;;4897252;29;20035;-65
2022/08/23 07:41:40;;;;;;;1.95;0.95;;;10.00;99.90;;;;;;4897414;29;20025;-69
2022/08/23 07:44:09;;;;;;;2.47;0.88;;;10.10;99.90;;;;;;4895856;29;20063;-68
2022/08/23 07:46:39;;;;;;;3.92;1.10;;;10.10;99.90;;;;;;4895714;29;20450;-65
2022/08/23 07:49:07;;;;;;;1.77;1.00;;;10.00;99.90;;;;;;4896580;29;20032;-64
2022/08/23 07:51:35;;;;;;;3.70;0.98;;;10.10;99.90;;;;;;4897000;29;20041;-68
2022/08/23 07:54:05;;;;;;;4.30;1.27;;;10.10;99.90;;;;;;4896415;29;20017;-67
2022/08/23 07:56:33;;;;;;;6.72;5.13;;;10.00;99.90;;;;;;4896071;29;20032;-72
2022/08/23 07:59:01;;;;;;;3.80;1.13;;;10.10;99.90;;;;;;4895814;29;20040;-70
2022/08/23 08:01:30;;;;;;;4.35;2.15;;;10.10;99.90;;;;;;4897806;29;20021;-63
2022/08/23 08:03:59;;;;;;;3.33;1.40;;;10.20;99.90;;;;;;4897327;29;20489;-74
2022/08/23 08:06:39;;;;;;;2.75;2.03;;;10.10;99.90;;;;;;4897218;29;20033;-67
2022/08/23 08:09:08;;;;;;;1.65;1.00;;;10.10;99.90;;;;;;4897795;29;20029;-67
2022/08/23 08:11:36;;;;;;;3.53;1.40;;;10.10;99.90;;;;;;4897288;29;20366;-67
2022/08/23 08:14:09;;;;;;;4.78;1.38;;;10.10;99.90;;;;;;4896407;29;20036;-69
2022/08/23 08:16:45;;;;;;;3.42;1.55;;;10.00;99.90;;;;;;4890807;29;20381;-67
2022/08/23 08:19:15;;;;;;;3.05;1.40;;;10.10;99.90;;;;;;4897173;29;20482;-66
2022/08/23 08:21:44;;;;;;;1.75;1.00;;;10.10;99.90;;;;;;4897275;29;20050;-67
2022/08/23 08:24:15;;;;;;;3.25;2.03;;;10.20;99.90;;;;;;4890945;29;20039;-64
2022/08/23 08:26:44;;;;;;;2.42;1.35;;;10.00;99.90;;;;;;4896174;29;20504;-67
2022/08/23 08:29:12;;;;;;;2.03;1.00;;;9.90;99.90;;;;;;4895104;29;20032;-64
2022/08/23 08:31:42;;;;;;;4.53;3.50;;;9.90;99.90;;;;;;4896201;29;20028;-66
2022/08/23 08:34:09;;;;;;;1.67;1.23;;;9.80;99.90;;;;;;4894089;29;20033;-65
2022/08/23 08:36:44;;;;;;;4.43;3.35;;;9.60;99.90;;;;;;4895948;29;20116;-65
2022/08/23 08:39:15;;;;;;;2.58;1.80;;;9.60;99.90;;;;;;4894853;29;20028;-66
2022/08/23 08:41:47;;;;;;;1.55;1.25;;;9.50;99.90;;;;;;4895541;29;20028;-68
2022/08/23 08:44:23;;;;;;;1.77;1.08;;;9.40;99.90;;;;;;4896687;29;20025;-64
2022/08/23 08:46:53;;;;;;;5.72;2.00;;;9.50;99.90;;;;;;4896518;29;20083;-69
2022/08/23 08:49:52;;;;;;;2.55;1.88;;;9.40;99.90;;;;;;4896821;29;20112;-67
2022/08/23 08:52:59;;;;;;;3.58;1.90;;;9.40;99.90;;;;;;4896926;29;20545;-66
2022/08/23 08:55:45;;;;;;;2.38;1.35;;;9.40;99.90;;;;;;4886092;29;20033;-66
2022/08/23 08:58:25;;;;;;;3.45;1.80;;;9.40;99.90;;;;;;4887671;29;20045;-65
2022/08/23 09:00:52;;;;;;;3.47;2.63;;;9.40;99.90;;;;;;4895224;29;20033;-69
2022/08/23 09:03:21;;;;;;;4.82;3.45;;;9.40;99.90;;;;;;4895907;29;20028;-69
2022/08/23 09:06:11;;;;;;;2.20;1.38;;;9.40;99.90;;;;;;4896033;29;20079;-67
2022/08/23 09:09:00;;;;;;;2.42;1.80;;;9.40;99.90;;;;;;4896244;29;20040;-73
2022/08/23 09:11:36;;;;;;;2.83;1.60;;;9.40;99.90;;;;;;4896593;29;20442;-68
2022/08/23 09:14:18;;;;;;;2.72;1.65;;;9.30;99.90;;;;;;4896018;29;20478;-71
2022/08/23 09:17:16;;;;;;;1.60;1.13;;;9.30;99.90;;;;;;4895699;29;20045;-70
2022/08/23 09:19:46;;;;;;;2.13;1.33;;;9.30;99.90;;;;;;4896611;29;20025;-72
2022/08/23 09:22:18;;;;;;;2.58;1.45;;;9.30;99.90;;;;;;4895934;29;20027;-69
2022/08/23 09:24:45;;;;;;;3.70;2.00;;;9.20;99.90;;;;;;4895791;29;20493;-73
2022/08/23 09:27:13;;;;;;;3.25;2.28;;;9.20;99.90;;;;;;4896260;29;20056;-74
2022/08/23 09:29:59;;;;;;;2.88;1.13;;;9.20;99.90;;;;;;4896294;29;20079;-73
2022/08/23 09:32:29;;;;;;;1.48;1.27;;;9.20;99.90;;;;;;4894845;29;20028;-67
2022/08/23 09:35:29;;;;;;;2.42;1.38;;;9.10;99.90;;;;;;4895535;29;20549;-69
2022/08/23 09:38:02;;;;;;;2.45;1.55;;;9.20;99.90;;;;;;4860610;29;20055;-67
2022/08/23 09:40:43;;;;;;;3.15;1.65;;;9.10;99.90;;;;;;4895921;29;20036;-68
2022/08/23 09:43:17;;;;;;;4.03;2.20;;;9.10;99.90;;;;;;4894150;29;20036;-72
2022/08/23 09:46:04;;;;;;;3.33;1.65;;;9.20;99.90;;;;;;4895331;29;20132;-67
2022/08/23 09:48:45;;;;;;;4.25;2.35;;;9.10;99.90;;;;;;4893351;29;20034;-67
2022/08/23 09:51:32;;;;;;;2.00;1.70;;;9.10;99.90;;;;;;4895719;29;20500;-68
2022/08/23 09:54:23;;;;;;;2.97;1.80;;;9.00;99.90;;;;;;4895684;29;20031;-64
2022/08/23 09:57:02;;;;;;;3.35;2.50;;;9.10;99.90;;;;;;4895354;29;20087;-64
2022/08/23 09:59:40;;;;;;;2.75;1.40;;;9.00;99.90;;;;;;4895974;29;20067;-64
2022/08/23 10:02:27;;;;;;;3.55;2.15;;;9.00;99.90;;;;;;4895786;29;20036;-66
2022/08/23 10:05:04;;;;;;;2.38;1.60;;;9.00;99.90;;;;;;4896318;29;20033;-66
2022/08/23 10:07:45;;;;;;;4.63;2.55;;;8.90;99.90;;;;;;4896345;29;20043;-65
2022/08/23 10:10:30;;;;;;;2.67;1.70;;;8.90;99.90;;;;;;4896257;29;20033;-65
2022/08/23 10:12:58;;;;;;;3.85;2.00;;;8.80;99.90;;;;;;4896267;29;20373;-65
2022/08/23 10:16:06;;;;;;;3.28;1.83;;;8.80;99.90;;;;;;4896070;29;20423;-66
2022/08/23 10:18:46;;;;;;;4.30;2.78;;;8.70;99.90;;;;;;4892992;29;20041;-68
2022/08/23 10:21:46;;;;;;;3.00;1.95;;;8.80;99.90;;;;;;4894730;29;20048;-68
2022/08/23 10:24:38;;;;;;;4.20;1.52;;;8.70;99.90;;;;;;4895380;29;20080;-65
2022/08/23 10:30:14;;;;;;;7.22;3.38;;;8.80;99.90;;;;;;4895201;29;20503;-65
2022/08/23 10:33:18;;;;;;;2.45;1.20;;;8.70;99.90;;;;;;4890429;29;20035;-70
2022/08/23 10:35:57;;;;;;;1.70;1.60;;;8.60;99.90;;;;;;4876643;29;20021;-73
2022/08/23 10:38:33;;;;;;;3.30;1.63;;;8.50;99.90;;;;;;4876751;29;20037;-73
2022/08/23 10:41:40;;;;;;;4.30;3.25;;;8.50;99.90;;;;;;4876686;29;20029;-71
2022/08/23 10:44:24;;;;;;;5.90;2.60;;;8.60;99.90;;;;;;4876705;29;20041;-65
2022/08/23 10:47:13;;;;;;;3.15;2.67;;;8.60;99.90;;;;;;4884987;29;20430;-69
2022/08/23 10:49:41;;;;;;;2.80;1.40;;;8.50;99.90;;;;;;4894112;29;20393;-67
2022/08/23 10:52:17;;;;;;;2.13;1.38;;;8.40;99.90;;;;;;4890340;29;20029;-68
2022/08/23 10:55:04;;;;;;;2.95;1.50;;;8.50;99.90;;;;;;4893244;29;20040;-67
2022/08/23 10:57:37;;;;;;;1.70;1.10;;;8.50;99.90;;;;;;4895305;29;20049;-64
2022/08/23 11:00:08;;;;;;;7.57;3.00;;;8.50;99.90;;;;;;4898621;29;20175;-64
2022/08/23 11:02:55;;;;;;;1.95;1.38;;;8.40;99.90;;;;;;4898727;29;20398;-64
2022/08/23 11:05:27;;;;;;;3.95;2.53;;;8.40;99.90;;;;;;4899086;29;20404;-66
2022/08/23 11:08:05;;;;;;;2.10;1.38;;;8.50;99.90;;;;;;4898825;29;20537;-65
2022/08/23 11:10:38;;;;;;;3.88;1.77;;;8.40;99.90;;;;;;4898872;29;20039;-72
2022/08/23 11:13:21;;;;;;;3.10;1.65;;;8.40;99.90;;;;;;4898031;29;20029;-66
2022/08/23 11:15:57;;;;;;;2.58;1.20;;;8.30;99.90;;;;;;4898334;29;20036;-70
2022/08/23 11:18:35;;;;;;;2.42;1.17;;;8.40;99.90;;;;;;4897139;29;20048;-67
2022/08/23 11:21:12;;;;;;;1.90;1.00;;;8.30;99.90;;;;;;4897922;29;20029;-64
2022/08/23 11:23:53;;;;;;;2.28;1.00;;;8.30;99.90;;;;;;4897768;29;20076;-68
2022/08/23 11:26:26;;;;;;;3.25;1.65;;;8.40;99.90;;;;;;4898323;29;20043;-66
2022/08/23 11:29:22;;;;;;;9.52;6.00;;;8.30;99.90;;;;;;4895119;29;20065;-70
2022/08/23 11:32:17;;;;;;;29.42;19.73;;;8.30;99.90;;;;;;4891856;29;20041;-69
2022/08/23 11:35:10;;;;;;;21.02;12.45;;;8.20;99.90;;;;;;4896986;29;20021;-67
2022/08/23 11:37:53;;;;;;;;;;;8.40;99.90;;;;;;4898250;29;20037;-67
2022/08/23 11:40:39;;;;;;;7.10;4.43;;;8.30;99.90;;;;;;4898278;29;19915;-68
2022/08/23 11:43:12;;;;;;;13.57;10.75;;;8.30;99.90;;;;;;4897601;29;20016;-69
2022/08/23 11:45:42;;;;;;;;;;;8.30;99.90;;;;;;4897558;29;20385;-70
2022/08/23 11:48:21;;;;;;;7.93;4.93;;;8.40;99.90;;;;;;4897858;29;20217;-70
2022/08/23 11:50:51;;;;;;;2.92;2.10;;;8.40;99.90;;;;;;4897678;29;20473;-67
2022/08/23 11:53:46;;;;;;;5.50;2.67;;;8.40;99.90;;;;;;4897353;29;20060;-71
2022/08/23 11:56:19;;;;;;;12.85;9.77;;;8.40;99.90;;;;;;4897138;29;20028;-65
2022/08/23 11:59:08;;;;;;;9.18;4.93;;;8.40;99.90;;;;;;4896913;29;20474;-68
2022/08/23 12:01:38;;;;;;;4.70;3.00;;;8.30;99.90;;;;;;4897980;29;20069;-64
2022/08/23 12:04:13;;;;;;;4.88;1.98;;;8.40;99.90;;;;;;4897720;29;20477;-68
2022/08/23 12:06:43;;;;;;;7.32;2.83;;;8.40;99.90;;;;;;4896366;29;20115;-66
2022/08/23 12:09:34;;;;;;;8.98;4.93;;;8.40;99.90;;;;;;4896310;29;20035;-66
2022/08/23 12:12:01;;;;;;;4.10;1.73;;;8.40;99.90;;;;;;4898055;29;20039;-65
2022/08/23 12:14:32;;;;;;;6.20;2.78;;;8.50;99.90;;;;;;4897809;29;20506;-72
2022/08/23 12:17:25;;;;;;;5.28;1.77;;;8.40;99.90;;;;;;4896216;29;20071;-75
2022/08/23 12:20:09;;;;;;;6.38;2.35;;;8.50;99.90;;;;;;4896400;29;20032;-65
2022/08/23 12:23:18;;;;;;;5.93;1.92;;;8.50;99.90;;;;;;4896939;29;20035;-67
2022/08/23 12:25:45;;;;;;;8.00;2.97;;;8.50;99.90;;;;;;4893955;29;20024;-65
2022/08/23 12:28:23;;;;;;;5.00;2.00;;;8.50;99.90;;;;;;4896040;29;20458;-70
2022/08/23 12:31:11;;;;;;;6.13;2.25;;;8.60;99.90;;;;;;4896533;29;20037;-67
2022/08/23 12:33:52;;;;;;;5.20;1.70;;;8.50;99.90;;;;;;4895103;29;20503;-66
2022/08/23 12:36:40;;;;;;;3.45;1.50;;;8.60;99.90;;;;;;4895498;29;20032;-65
2022/08/23 12:39:24;;;;;;;5.15;1.38;;;8.60;99.90;;;;;;4896407;29;20036;-69
2022/08/23 12:41:58;;;;;;;5.97;2.15;;;8.60;99.90;;;;;;4896969;29;20541;-65
2022/08/23 12:44:29;;;;;;;4.45;1.20;;;8.60;99.90;;;;;;4896008;29;20029;-63
2022/08/23 12:47:08;;;;;;;4.95;1.70;;;8.60;99.90;;;;;;4896411;29;20381;-66
2022/08/23 12:49:37;;;;;;;4.45;1.20;;;8.60;99.90;;;;;;4896317;29;20033;-66
2022/08/23 12:52:13;;;;;;;5.93;1.73;;;8.60;99.90;;;;;;4896429;29;20031;-65
2022/08/23 12:54:49;;;;;;;5.65;1.98;;;8.70;99.90;;;;;;4895984;29;20040;-67
2022/08/23 12:57:40;;;;;;;5.35;2.03;;;8.50;99.90;;;;;;4896722;29;20035;-64
2022/08/23 13:00:34;;;;;;;3.35;1.20;;;8.60;99.90;;;;;;4896985;29;20050;-65
2022/08/23 13:03:07;;;;;;;4.57;2.08;;;8.60;99.90;;;;;;4896652;29;20029;-67
2022/08/23 13:05:43;;;;;;;5.07;1.50;;;8.70;99.90;;;;;;4896727;29;20071;-67
2022/08/23 13:08:15;;;;;;;4.03;1.25;;;8.60;99.90;;;;;;4896810;29;20367;-65
2022/08/23 13:10:45;;;;;;;5.47;2.33;;;8.70;99.90;;;;;;4896510;29;20517;-64
2022/08/23 13:13:15;;;;;;;5.00;2.70;;;8.70;99.90;;;;;;4896340;29;20481;-66
2022/08/23 13:15:47;;;;;;;5.55;1.20;;;8.60;99.90;;;;;;4896237;29;20028;-66
2022/08/23 13:18:44;;;;;;;5.07;1.77;;;8.60;99.90;;;;;;4896199;29;20036;-66
2022/08/23 13:21:30;;;;;;;4.07;1.50;;;8.60;99.90;;;;;;4896176;29;20041;-70
2022/08/23 13:24:21;;;;;;;4.22;1.98;;;8.70;99.90;;;;;;4895969;29;20530;-63
2022/08/23 13:26:48;;;;;;;4.30;1.17;;;8.60;99.90;;;;;;4896199;29;20032;-65
2022/08/23 13:29:16;;;;;;;6.68;1.60;;;8.60;99.90;;;;;;4895546;29;20058;-64
2022/08/23 13:31:56;;;;;;;5.13;2.05;;;8.60;99.90;;;;;;4896335;29;20055;-67
2022/08/23 13:34:41;;;;;;;2.53;1.00;;;8.70;99.90;;;;;;4895956;29;20035;-66